Time;durP1;ratioP1;P1;durP2;ratioP2;P2;SDS_P1;SDS_P2;PMS_P1;PMS_P2;Temp;Humidity;BMP_temperature;BMP_pressure;BME280_temperature;BME280_humidity;BME280_pressure;Samples;Min_cycle;Max_cycle;Signal;HPM_P1;HPM_P2
2020/12/18 00:00:04;;;;;;;13.27;9.07;;;;;;;-144.99;100.00;52574.47;5072424;28;20640;-77
2020/12/18 00:02:30;;;;;;;12.30;10.50;;;;;;;-144.99;100.00;52541.84;5071076;28;20208;-76
2020/12/18 00:04:56;;;;;;;12.60;8.97;;;;;;;-144.99;100.00;52517.41;5070177;28;20292;-75
2020/12/18 00:07:23;;;;;;;15.47;10.03;;;;;;;-144.99;100.00;52582.63;5070740;28;20293;-75
2020/12/18 00:09:50;;;;;;;14.37;8.90;;;;;;;-144.99;100.00;52562.25;5070441;28;20311;-74
2020/12/18 00:12:16;;;;;;;17.00;10.57;;;;;;;-144.99;100.00;52558.16;5070893;28;20205;-74
2020/12/18 00:14:42;;;;;;;13.73;10.67;;;;;;;-144.99;100.00;52554.09;5070422;28;20245;-74
2020/12/18 00:17:08;;;;;;;13.53;9.23;;;;;;;-144.99;100.00;52509.25;5071166;28;20256;-74
2020/12/18 00:19:34;;;;;;;17.27;9.97;;;;;;;-144.99;100.00;52550.00;5069170;28;20224;-74
2020/12/18 00:22:01;;;;;;;11.83;9.27;;;;;;;-144.99;100.00;52570.38;5070678;28;20416;-74
2020/12/18 00:24:27;;;;;;;14.37;10.67;;;;;;;-144.99;100.00;52550.00;5070557;28;20205;-75
2020/12/18 00:26:54;;;;;;;14.97;10.10;;;;;;;-144.99;100.00;52554.09;5070104;28;20208;-73
2020/12/18 00:29:20;;;;;;;12.33;8.77;;;;;;;-144.99;100.00;52533.69;5070204;28;20227;-76
2020/12/18 00:31:46;;;;;;;13.80;9.23;;;;;;;-144.99;100.00;52574.47;5069814;28;20200;-73
2020/12/18 00:34:12;;;;;;;12.43;10.83;;;;;;;-144.99;100.00;52572.44;5070139;28;20626;-75
2020/12/18 00:36:39;;;;;;;15.17;9.90;;;;;;;-144.99;100.00;52574.47;5069942;28;20230;-71
2020/12/18 00:39:07;;;;;;;15.13;9.07;;;;;;;-144.99;100.00;52574.47;5069814;28;20282;-76
2020/12/18 00:41:41;;;;;;;11.93;8.99;;;;;;;-144.99;100.00;52550.00;4997630;28;10000705;-73
2020/12/18 00:44:08;;;;;;;13.50;8.80;;;;;;;-144.99;100.00;52556.13;5069044;28;20254;-74
2020/12/18 00:46:35;;;;;;;17.33;10.63;;;;;;;-144.99;100.00;52554.09;5069855;28;20294;-74
2020/12/18 00:49:01;;;;;;;18.00;8.97;;;;;;;-144.99;100.00;52582.63;5099778;22;20783;-68
2020/12/18 00:51:28;;;;;;;12.80;9.27;;;;;;;-144.99;100.00;52568.34;5090184;28;20477;-68
2020/12/18 00:53:54;;;;;;;12.77;10.30;;;;;;;-144.99;100.00;52545.94;5091390;28;20208;-68
2020/12/18 00:56:20;;;;;;;14.63;9.43;;;;;;;-144.99;100.00;52570.38;5090495;28;20338;-69
2020/12/18 00:58:47;;;;;;;16.67;10.17;;;;;;;-144.99;100.00;52578.53;5090464;28;20747;-68
2020/12/18 01:01:14;;;;;;;12.53;8.40;;;;;;;-144.99;100.00;52564.28;5071042;28;20300;-70
2020/12/18 01:03:41;;;;;;;15.53;11.17;;;;;;;-144.99;100.00;52545.94;5070334;28;20410;-70
2020/12/18 01:06:08;;;;;;;17.13;8.63;;;;;;;-144.99;100.00;52590.78;5071398;28;20243;-69
2020/12/18 01:08:34;;;;;;;12.03;8.83;;;;;;;-144.99;100.00;52537.78;5070238;28;20679;-68
2020/12/18 01:11:02;;;;;;;18.33;9.13;;;;;;;-144.99;100.00;52570.38;5070693;28;20228;-68
2020/12/18 01:13:29;;;;;;;12.53;7.77;;;;;;;-144.99;100.00;52558.16;5070380;28;20235;-68
2020/12/18 01:15:56;;;;;;;13.57;11.40;;;;;;;-144.99;100.00;52582.63;5071022;28;20219;-69
2020/12/18 01:18:23;;;;;;;9.67;8.37;;;;;;;-144.99;100.00;52545.94;5070199;28;20228;-68
2020/12/18 01:20:49;;;;;;;11.77;9.00;;;;;;;-144.99;100.00;52521.47;5071141;28;20243;-69
2020/12/18 01:23:15;;;;;;;11.37;8.90;;;;;;;-144.99;100.00;52537.78;5070582;28;20205;-68
2020/12/18 01:25:41;;;;;;;21.70;9.13;;;;;;;-144.99;100.00;52574.47;5070793;28;20209;-67
2020/12/18 01:28:07;;;;;;;12.13;9.27;;;;;;;-144.99;100.00;52541.84;5070526;28;20216;-68
2020/12/18 01:30:34;;;;;;;20.73;8.20;;;;;;;-144.99;100.00;52562.25;5070262;28;20748;-69
2020/12/18 01:33:00;;;;;;;12.53;8.93;;;;;;;-144.99;100.00;52537.78;5069880;28;20201;-69
2020/12/18 01:35:27;;;;;;;14.10;9.50;;;;;;;-144.99;100.00;52566.31;5071427;28;20280;-69
2020/12/18 01:37:53;;;;;;;12.70;8.37;;;;;;;-144.99;100.00;52539.81;5069975;28;20256;-69
2020/12/18 01:40:19;;;;;;;16.13;10.13;;;;;;;-144.99;100.00;52529.63;5069874;28;20220;-69
2020/12/18 01:42:45;;;;;;;12.50;7.40;;;;;;;-144.99;100.00;52562.25;5070195;28;20205;-68
2020/12/18 01:45:11;;;;;;;19.73;9.60;;;;;;;-144.99;100.00;52568.34;5070099;28;20209;-68
2020/12/18 01:47:38;;;;;;;17.13;8.77;;;;;;;-144.99;100.00;52578.53;5069785;28;20227;-69
2020/12/18 01:50:05;;;;;;;13.97;9.63;;;;;;;-144.99;100.00;52521.47;5069721;28;20260;-69
2020/12/18 01:52:33;;;;;;;13.77;8.77;;;;;;;-144.99;100.00;52550.00;5070595;28;20759;-69
2020/12/18 01:55:03;;;;;;;13.33;9.03;;;;;;;-144.99;100.00;52550.00;5069661;28;20220;-69
2020/12/18 01:57:30;;;;;;;13.20;9.43;;;;;;;-144.99;100.00;52574.47;5069643;28;20792;-68
2020/12/18 01:59:59;;;;;;;13.10;8.37;;;;;;;-144.99;100.00;52550.00;5068868;28;20308;-69
2020/12/18 02:02:26;;;;;;;13.77;8.57;;;;;;;-144.99;100.00;52521.47;5069645;28;20641;-67
2020/12/18 02:04:52;;;;;;;12.20;9.70;;;;;;;-144.99;100.00;52554.09;5069168;28;20605;-68
2020/12/18 02:07:22;;;;;;;12.33;8.10;;;;;;;-144.99;100.00;52582.63;5069331;28;20291;-69
2020/12/18 02:09:50;;;;;;;14.37;8.60;;;;;;;-144.99;100.00;52560.19;5068955;28;20653;-70
2020/12/18 02:12:17;;;;;;;13.73;8.07;;;;;;;-144.99;100.00;52541.84;5068752;28;20227;-70
2020/12/18 02:14:47;;;;;;;9.00;7.33;;;;;;;-144.99;100.00;52558.16;5069294;28;20291;-70
2020/12/18 02:17:13;;;;;;;10.60;7.90;;;;;;;-144.99;100.00;52578.53;5069048;28;20248;-70
2020/12/18 02:19:42;;;;;;;10.23;6.90;;;;;;;-144.99;100.00;52531.66;5068175;28;20729;-69
2020/12/18 02:22:15;;;;;;;17.20;8.73;;;;;;;-144.99;100.00;52545.94;5069398;28;20288;-66
2020/12/18 02:24:49;;;;;;;12.77;7.47;;;;;;;-144.99;100.00;52562.25;5069079;28;20666;-68
2020/12/18 02:27:16;;;;;;;17.70;8.07;;;;;;;-144.99;100.00;52566.31;5069241;28;20568;-67
2020/12/18 02:29:42;;;;;;;10.43;6.77;;;;;;;-144.99;100.00;52554.09;5068323;28;20248;-68
2020/12/18 02:32:08;;;;;;;15.03;9.30;;;;;;;-144.99;100.00;52570.38;5068828;28;20287;-69
2020/12/18 02:34:34;;;;;;;13.10;8.93;;;;;;;-144.99;100.00;52517.41;5068373;28;20602;-68
2020/12/18 02:37:00;;;;;;;8.20;6.60;;;;;;;-144.99;100.00;52533.69;5068366;28;20288;-67
2020/12/18 02:39:27;;;;;;;11.43;8.97;;;;;;;-144.99;100.00;52523.50;5068649;28;20236;-68
2020/12/18 02:41:53;;;;;;;11.77;8.37;;;;;;;-144.99;100.00;52558.16;5069169;28;20287;-68
2020/12/18 02:44:20;;;;;;;15.27;8.37;;;;;;;-144.99;100.00;52543.91;5068234;28;20347;-68
2020/12/18 02:46:48;;;;;;;11.47;6.77;;;;;;;-144.99;100.00;52521.47;5068565;28;20250;-68
2020/12/18 02:49:14;;;;;;;11.20;7.87;;;;;;;-144.99;100.00;52543.91;5068454;28;20489;-69
2020/12/18 02:51:41;;;;;;;11.67;7.73;;;;;;;-144.99;100.00;52578.53;5069805;28;20208;-68
2020/12/18 02:54:07;;;;;;;9.53;7.53;;;;;;;-144.99;100.00;52554.09;5069222;28;20642;-68
2020/12/18 02:56:33;;;;;;;7.73;6.30;;;;;;;-144.99;100.00;52576.50;5068729;28;20236;-69
2020/12/18 02:58:59;;;;;;;8.50;6.20;;;;;;;-144.99;100.00;52550.00;5069937;28;20307;-68
2020/12/18 03:01:26;;;;;;;10.50;7.77;;;;;;;-144.99;100.00;52554.09;5089082;28;20257;-68
2020/12/18 03:03:52;;;;;;;14.93;7.80;;;;;;;-144.99;100.00;52533.69;5088356;28;20678;-68
2020/12/18 03:06:18;;;;;;;10.90;7.03;;;;;;;-144.99;100.00;52539.81;5089187;28;20294;-68
2020/12/18 03:08:44;;;;;;;8.67;7.03;;;;;;;-144.99;100.00;52521.47;5088944;28;20235;-68
2020/12/18 03:11:13;;;;;;;10.67;6.53;;;;;;;-144.99;100.00;52537.78;5093933;28;20239;-69
2020/12/18 03:13:39;;;;;;;13.87;8.33;;;;;;;-144.99;100.00;52594.84;5091800;28;20232;-68
2020/12/18 03:16:05;;;;;;;8.53;6.97;;;;;;;-144.99;100.00;52511.28;5089580;28;20204;-68
2020/12/18 03:18:32;;;;;;;9.33;6.27;;;;;;;-144.99;100.00;52525.56;5087340;28;20299;-69
2020/12/18 03:20:58;;;;;;;13.47;6.40;;;;;;;-144.99;100.00;52545.94;5068973;28;20284;-69
2020/12/18 03:23:24;;;;;;;13.77;7.43;;;;;;;-144.99;100.00;52507.19;5069059;28;20291;-68
2020/12/18 03:25:50;;;;;;;11.17;7.80;;;;;;;-144.99;100.00;52570.38;5069058;28;20240;-68
2020/12/18 03:28:16;;;;;;;9.70;7.43;;;;;;;-144.99;100.00;52547.97;5073559;28;20223;-67
2020/12/18 03:30:42;;;;;;;11.23;7.53;;;;;;;-144.99;100.00;52562.25;5088995;28;20239;-67
2020/12/18 03:33:08;;;;;;;15.73;7.33;;;;;;;-144.99;100.00;52541.84;5088414;28;20208;-69
2020/12/18 03:35:36;;;;;;;15.60;8.23;;;;;;;-144.99;100.00;52562.25;5089176;28;20228;-68
2020/12/18 03:38:03;;;;;;;16.33;7.93;;;;;;;-144.99;100.00;52554.09;5088707;28;20610;-68
2020/12/18 03:40:29;;;;;;;11.93;7.23;;;;;;;-144.99;100.00;52525.56;5090437;28;20239;-68
2020/12/18 03:42:55;;;;;;;10.87;7.60;;;;;;;-144.99;100.00;52547.97;5089480;28;20345;-69
2020/12/18 03:45:21;;;;;;;12.17;8.57;;;;;;;-144.99;100.00;52550.00;5090099;28;20250;-69
2020/12/18 03:47:47;;;;;;;12.53;7.77;;;;;;;-144.99;100.00;52537.78;5086402;28;20971;-69
2020/12/18 03:50:13;;;;;;;11.03;6.70;;;;;;;-144.99;100.00;52560.19;5068198;28;20224;-69
2020/12/18 03:52:41;;;;;;;12.03;7.97;;;;;;;-144.99;100.00;52533.69;5068050;28;20239;-69
2020/12/18 03:55:07;;;;;;;15.77;9.57;;;;;;;-144.99;100.00;52543.91;5068337;28;20260;-69
2020/12/18 03:57:33;;;;;;;15.10;7.93;;;;;;;-144.99;100.00;52576.50;5068404;28;20315;-69
2020/12/18 03:59:59;;;;;;;20.93;8.57;;;;;;;-144.99;100.00;52560.19;5068111;28;20677;-68
2020/12/18 04:02:25;;;;;;;12.43;8.50;;;;;;;-144.99;100.00;52562.25;5068329;28;20207;-69
2020/12/18 04:04:51;;;;;;;12.70;7.60;;;;;;;-144.99;100.00;52562.25;5068811;28;20209;-68
2020/12/18 04:07:17;;;;;;;11.60;8.63;;;;;;;-144.99;100.00;52521.47;5068606;28;20287;-69
2020/12/18 04:09:45;;;;;;;9.10;7.57;;;;;;;-144.99;100.00;52562.25;5067965;28;20701;-69
2020/12/18 04:12:11;;;;;;;10.90;7.27;;;;;;;-144.99;100.00;52537.78;5068223;28;20284;-68
2020/12/18 04:14:37;;;;;;;11.37;6.57;;;;;;;-144.99;100.00;52525.56;5067785;28;20209;-69
2020/12/18 04:17:04;;;;;;;11.60;7.17;;;;;;;-144.99;100.00;52541.84;5067872;28;20730;-68
2020/12/18 04:19:30;;;;;;;12.97;8.40;;;;;;;-144.99;100.00;52576.50;5068169;28;20381;-70
2020/12/18 04:21:57;;;;;;;14.87;9.33;;;;;;;-144.99;100.00;52537.78;5072048;28;20208;-68
2020/12/18 04:24:23;;;;;;;11.70;7.13;;;;;;;-144.99;100.00;52558.16;5072530;28;20291;-68
2020/12/18 04:26:50;;;;;;;14.70;10.40;;;;;;;-144.99;100.00;52554.09;5077761;28;20290;-68
2020/12/18 04:29:17;;;;;;;11.73;7.27;;;;;;;-144.99;100.00;52545.94;5091470;28;20252;-68
2020/12/18 04:31:43;;;;;;;16.27;10.13;;;;;;;-144.99;100.00;52527.59;5086334;28;20295;-68
2020/12/18 04:34:09;;;;;;;13.53;9.40;;;;;;;-144.99;100.00;52558.16;5071794;28;20279;-69
2020/12/18 04:36:35;;;;;;;10.33;8.20;;;;;;;-144.99;100.00;52580.59;5071505;28;20300;-68
2020/12/18 04:39:02;;;;;;;10.77;7.90;;;;;;;-144.99;100.00;52537.78;5071299;28;20287;-69
2020/12/18 04:41:28;;;;;;;13.70;8.37;;;;;;;-144.99;100.00;52566.31;5072054;28;20211;-68
2020/12/18 04:43:55;;;;;;;12.50;8.27;;;;;;;-144.99;100.00;52566.31;5070470;28;20240;-68
2020/12/18 04:46:23;;;;;;;12.23;10.00;;;;;;;-144.99;100.00;52562.25;5071546;28;20228;-67
2020/12/18 04:48:49;;;;;;;12.40;7.30;;;;;;;-144.99;100.00;52564.28;5070489;28;20363;-67
2020/12/18 04:51:18;;;;;;;11.43;8.60;;;;;;;-144.99;100.00;52517.41;5071166;28;20695;-68
2020/12/18 04:53:48;;;;;;;15.10;10.00;;;;;;;-144.99;100.00;52547.97;5071196;28;20312;-68
2020/12/18 04:56:19;;;;;;;13.27;8.70;;;;;;;-144.99;100.00;52521.47;5070943;28;20295;-68
2020/12/18 04:58:48;;;;;;;17.20;9.40;;;;;;;-144.99;100.00;52590.78;5070671;28;20228;-67
2020/12/18 05:01:18;;;;;;;11.20;9.00;;;;;;;-144.99;100.00;52594.84;5071224;28;20363;-68
2020/12/18 05:03:45;;;;;;;12.47;7.87;;;;;;;-144.99;100.00;52562.25;5070453;28;20756;-68
2020/12/18 05:06:11;;;;;;;16.70;12.43;;;;;;;-144.99;100.00;52525.56;5070667;28;20217;-67
2020/12/18 05:08:37;;;;;;;17.77;9.50;;;;;;;-144.99;100.00;52509.25;5070448;28;20305;-69
2020/12/18 05:11:16;;;;;;;13.03;8.10;;;;;;;-144.99;100.00;52517.41;5070274;28;20308;-69
2020/12/18 05:13:42;;;;;;;12.40;7.87;;;;;;;-144.99;100.00;52566.31;5070057;28;20770;-69
2020/12/18 05:16:08;;;;;;;11.67;8.90;;;;;;;-144.99;100.00;52545.94;5070726;28;20215;-69
2020/12/18 05:18:35;;;;;;;13.47;9.23;;;;;;;-144.99;100.00;52505.16;5069902;28;20224;-70
2020/12/18 05:21:01;;;;;;;12.17;8.97;;;;;;;-144.99;100.00;52562.25;5071348;28;20311;-70
2020/12/18 05:23:28;;;;;;;10.53;8.10;;;;;;;-144.99;100.00;52539.81;5070495;28;20228;-69
2020/12/18 05:25:54;;;;;;;16.53;9.13;;;;;;;-144.99;100.00;52570.38;5070498;28;20196;-68
2020/12/18 05:28:21;;;;;;;16.50;8.97;;;;;;;-144.99;100.00;52533.69;5070709;28;20241;-68
2020/12/18 05:30:49;;;;;;;13.03;10.00;;;;;;;-144.99;100.00;52533.69;5070113;28;20526;-67
2020/12/18 05:33:15;;;;;;;14.20;9.97;;;;;;;-144.99;100.00;52537.78;5070117;28;20213;-68
2020/12/18 05:35:42;;;;;;;10.73;8.87;;;;;;;-144.99;100.00;52554.09;5070587;28;20299;-68
2020/12/18 05:38:08;;;;;;;12.20;9.37;;;;;;;-144.99;100.00;52566.31;5069997;28;20221;-68
2020/12/18 05:40:34;;;;;;;16.47;9.60;;;;;;;-144.99;100.00;52590.78;5070490;28;20221;-68
2020/12/18 05:43:06;;;;;;;14.57;10.73;;;;;;;-144.99;100.00;52541.84;5070499;28;20295;-69
2020/12/18 05:45:33;;;;;;;17.23;10.23;;;;;;;-144.99;100.00;52554.09;5070474;28;20718;-68
2020/12/18 05:48:00;;;;;;;12.80;10.03;;;;;;;-144.99;100.00;52545.94;5070231;28;20220;-70
2020/12/18 05:50:28;;;;;;;20.43;11.47;;;;;;;-144.99;100.00;52550.00;5069697;28;20769;-69
2020/12/18 05:52:59;;;;;;;12.57;9.73;;;;;;;-144.99;100.00;52541.84;5070060;28;20225;-70
2020/12/18 05:55:25;;;;;;;16.07;9.80;;;;;;;-144.99;100.00;52545.94;5070695;28;20321;-71
2020/12/18 05:57:54;;;;;;;14.50;10.67;;;;;;;-144.99;100.00;52545.94;5076216;28;20232;-69
2020/12/18 06:00:21;;;;;;;16.57;9.57;;;;;;;-144.99;100.00;52566.31;5090453;28;20212;-69
2020/12/18 06:02:54;;;;;;;13.33;9.57;;;;;;;-144.99;100.00;52537.78;5090441;28;20207;-69
2020/12/18 06:05:23;;;;;;;17.73;10.93;;;;;;;-144.99;100.00;52554.09;5090504;28;20721;-67
2020/12/18 06:07:51;;;;;;;12.70;9.53;;;;;;;-144.99;100.00;52570.38;5090618;28;20681;-66
2020/12/18 06:10:20;;;;;;;13.20;10.10;;;;;;;-144.99;100.00;52574.47;5089866;28;21276;-70
2020/12/18 06:12:48;;;;;;;17.27;11.20;;;;;;;-144.99;100.00;52554.09;5081301;28;20250;-68
2020/12/18 06:15:17;;;;;;;13.97;10.83;;;;;;;-144.99;100.00;52533.69;5069921;28;20540;-70
2020/12/18 06:17:44;;;;;;;12.73;9.23;;;;;;;-144.99;100.00;52570.38;5069027;28;20800;-70
2020/12/18 06:20:13;;;;;;;17.40;10.53;;;;;;;-144.99;100.00;52517.41;5069846;28;20658;-70
2020/12/18 06:22:52;;;;;;;14.97;10.57;;;;;;;-144.99;100.00;52554.09;5070203;28;20228;-68
2020/12/18 06:25:19;;;;;;;18.73;12.50;;;;;;;-144.99;100.00;52598.94;5071426;28;20283;-68
2020/12/18 06:27:45;;;;;;;17.23;10.53;;;;;;;-144.99;100.00;52541.84;5071321;28;20684;-68
2020/12/18 06:30:11;;;;;;;15.43;11.30;;;;;;;-144.99;100.00;52582.63;5070853;28;20221;-67
2020/12/18 06:32:45;;;;;;;20.27;11.23;;;;;;;-144.99;100.00;52590.78;5073236;28;20631;-68
2020/12/18 06:35:30;;;;;;;15.83;10.70;;;;;;;-144.99;100.00;52598.94;5071008;28;20630;-68
2020/12/18 06:37:56;;;;;;;16.20;11.83;;;;;;;-144.99;100.00;52574.47;5071753;28;20243;-69
2020/12/18 06:40:31;;;;;;;13.70;10.63;;;;;;;-144.99;100.00;52592.81;5070155;28;20459;-70
2020/12/18 06:42:58;;;;;;;11.47;9.13;;;;;;;-144.99;100.00;52562.25;5069105;28;20243;-68
2020/12/18 06:45:24;;;;;;;14.47;11.50;;;;;;;-144.99;100.00;52570.38;5069396;28;20714;-70
2020/12/18 06:47:51;;;;;;;19.90;12.97;;;;;;;-144.99;100.00;52513.31;5068972;28;20742;-70
2020/12/18 06:50:19;;;;;;;21.00;13.50;;;;;;;-144.99;100.00;52564.28;5079403;22;20735;-74
2020/12/18 06:52:53;;;;;;;13.60;11.20;;;;;;;-144.99;100.00;52523.50;5035953;28;20693;-74
2020/12/18 06:55:38;;;;;;;14.43;11.33;;;;;;;-144.99;100.00;52525.56;5031087;28;20715;-76
2020/12/18 06:58:19;;;;;;;18.33;13.80;;;;;;;-144.99;100.00;52586.69;5023692;28;20682;-76
2020/12/18 07:00:47;;;;;;;17.80;11.73;;;;;;;-144.99;100.00;52580.59;5040096;28;20234;-76
2020/12/18 07:03:36;;;;;;;15.10;11.30;;;;;;;-144.99;100.00;52582.63;5029247;28;20268;-75
2020/12/18 07:06:04;;;;;;;16.83;10.53;;;;;;;-144.99;100.00;52603.00;5031680;28;20933;-77
2020/12/18 07:08:32;;;;;;;15.37;12.03;;;;;;;-144.99;100.00;52558.16;5030641;28;20302;-73
2020/12/18 07:11:05;;;;;;;23.70;13.67;;;;;;;-144.99;100.00;52554.09;5024326;28;20656;-73
2020/12/18 07:13:32;;;;;;;13.80;11.47;;;;;;;-144.99;100.00;52533.69;5015406;28;20629;-74
2020/12/18 07:16:06;;;;;;;20.43;12.87;;;;;;;-144.99;100.00;52566.31;5033961;28;20716;-73
2020/12/18 07:18:35;;;;;;;18.13;12.47;;;;;;;-144.99;100.00;52550.00;5032681;28;20652;-73
2020/12/18 07:21:04;;;;;;;14.40;11.70;;;;;;;-144.99;100.00;52545.94;5023778;28;21122;-71
2020/12/18 07:23:32;;;;;;;17.90;13.10;;;;;;;-144.99;100.00;52545.94;5033639;28;20727;-73
2020/12/18 07:26:00;;;;;;;14.37;11.60;;;;;;;-144.99;100.00;52574.47;5032611;28;20210;-74
2020/12/18 07:28:28;;;;;;;21.60;11.73;;;;;;;-144.99;100.00;52547.97;5031659;28;20664;-73
2020/12/18 07:30:57;;;;;;;15.83;14.10;;;;;;;-144.99;100.00;52574.47;5033633;28;20657;-73
2020/12/18 07:33:25;;;;;;;17.80;13.53;;;;;;;-144.99;100.00;52584.66;5026786;28;20618;-76
2020/12/18 07:35:53;;;;;;;14.13;11.50;;;;;;;-144.99;100.00;52547.97;5026564;28;20643;-73
2020/12/18 07:38:22;;;;;;;19.83;11.40;;;;;;;-144.99;100.00;52543.91;5033628;28;20656;-74
2020/12/18 07:40:52;;;;;;;20.50;12.23;;;;;;;-144.99;100.00;52541.84;5032083;28;20647;-73
2020/12/18 07:43:23;;;;;;;16.93;11.57;;;;;;;-144.99;100.00;52586.69;5021233;28;20640;-73
2020/12/18 07:45:52;;;;;;;18.10;12.47;;;;;;;-144.99;100.00;52603.00;5033411;28;20918;-75
2020/12/18 07:48:22;;;;;;;17.87;13.03;;;;;;;-144.99;100.00;52590.78;5023623;28;20625;-75
2020/12/18 07:50:59;;;;;;;19.10;14.53;;;;;;;-144.99;100.00;52509.25;5015831;28;20233;-73
2020/12/18 07:53:27;;;;;;;14.00;11.17;;;;;;;-144.99;100.00;52517.41;5029290;28;20709;-74
2020/12/18 07:56:06;;;;;;;17.87;12.40;;;;;;;-144.99;100.00;52562.25;5020510;28;20642;-73
2020/12/18 07:58:34;;;;;;;16.73;12.77;;;;;;;-144.99;100.00;52590.78;5032153;28;21029;-73
2020/12/18 08:01:08;;;;;;;16.13;10.60;;;;;;;-144.99;100.00;52550.00;5032398;28;20668;-72
2020/12/18 08:03:35;;;;;;;18.67;11.70;;;;;;;-144.99;100.00;52578.53;5032711;28;20820;-75
2020/12/18 08:06:04;;;;;;;21.13;10.73;;;;;;;-144.99;100.00;52547.97;5032473;28;20210;-74
2020/12/18 08:08:32;;;;;;;17.03;10.50;;;;;;;-144.99;100.00;52529.63;5032338;28;20198;-76
2020/12/18 08:11:00;;;;;;;17.30;12.63;;;;;;;-144.99;100.00;52594.84;5032385;28;20771;-73
2020/12/18 08:13:26;;;;;;;16.90;10.17;;;;;;;-144.99;100.00;52541.84;5019694;28;20199;-73
2020/12/18 08:16:10;;;;;;;14.67;10.40;;;;;;;-144.99;100.00;52588.75;5032736;28;20670;-73
2020/12/18 08:18:37;;;;;;;13.07;9.90;;;;;;;-144.99;100.00;52541.84;5030299;28;20222;-74
2020/12/18 08:21:04;;;;;;;12.87;10.23;;;;;;;-144.99;100.00;52511.28;5023966;28;20237;-74
2020/12/18 08:23:34;;;;;;;11.50;10.23;;;;;;;-144.99;100.00;52525.56;5031416;28;20632;-73
2020/12/18 08:26:04;;;;;;;18.73;10.27;;;;;;;-144.99;100.00;52574.47;5032176;28;20713;-74
2020/12/18 08:28:31;;;;;;;13.13;9.43;;;;;;;-144.99;100.00;52576.50;5031729;28;20332;-73
2020/12/18 08:31:05;;;;;;;13.13;7.60;;;;;;;-144.99;100.00;52554.09;5032001;28;20226;-72
2020/12/18 08:33:35;;;;;;;11.53;8.57;;;;;;;-144.99;100.00;52521.47;5031620;28;20457;-73
2020/12/18 08:36:02;;;;;;;14.53;7.80;;;;;;;-144.99;100.00;52554.09;5031753;28;20237;-74
2020/12/18 08:38:29;;;;;;;14.73;6.70;;;;;;;-144.99;100.00;52533.69;5031652;28;20253;-73
2020/12/18 08:40:56;;;;;;;10.43;6.93;;;;;;;-144.99;100.00;52533.69;5032039;28;20575;-74
2020/12/18 08:43:22;;;;;;;19.37;9.53;;;;;;;-144.99;100.00;52527.59;5031280;28;20761;-74
2020/12/18 08:45:48;;;;;;;11.27;8.00;;;;;;;-144.99;100.00;52541.84;5031677;28;20926;-75
2020/12/18 08:48:19;;;;;;;10.63;6.73;;;;;;;-144.99;100.00;52537.78;5025657;28;20230;-74
2020/12/18 08:50:46;;;;;;;11.63;7.63;;;;;;;-144.99;100.00;52513.31;5014731;28;20242;-72
2020/12/18 08:53:14;;;;;;;10.83;6.57;;;;;;;-144.99;100.00;52539.81;5031712;28;20225;-73
2020/12/18 08:55:40;;;;;;;9.87;7.23;;;;;;;-144.99;100.00;52541.84;5019568;28;20195;-71
2020/12/18 08:58:07;;;;;;;10.80;5.80;;;;;;;-144.99;99.62;52539.81;5031710;28;20233;-74
2020/12/18 09:00:34;;;;;;;9.63;5.20;;;;;;;-144.99;98.74;52541.84;5032010;28;20309;-71
2020/12/18 09:03:01;;;;;;;11.97;6.93;;;;;;;-144.99;99.03;52533.69;5031211;28;20237;-71
2020/12/18 09:05:29;;;;;;;7.03;5.23;;;;;;;-144.99;98.21;52501.09;5031045;28;20249;-69
2020/12/18 09:07:59;;;;;;;7.17;5.07;;;;;;;-144.99;98.13;52527.59;5031340;28;20216;-73
2020/12/18 09:10:40;;;;;;;11.77;7.80;;;;;;;-144.99;96.73;52505.16;5031452;28;20254;-73
2020/12/18 09:13:24;;;;;;;8.43;5.20;;;;;;;-144.99;95.99;52519.44;5020700;28;20226;-75
2020/12/18 09:16:02;;;;;;;12.73;4.43;;;;;;;-144.99;96.19;52533.69;5021889;28;20690;-76
2020/12/18 09:18:30;;;;;;;8.40;4.90;;;;;;;-144.99;94.79;52541.84;5031268;28;20229;-77
2020/12/18 09:21:08;;;;;;;5.90;4.00;;;;;;;-144.99;94.43;52505.16;5023442;28;20226;-75
2020/12/18 09:23:36;;;;;;;12.43;5.13;;;;;;;-144.99;93.50;52497.00;5031668;28;20202;-76
2020/12/18 09:26:03;;;;;;;11.63;4.10;;;;;;;-144.99;91.61;52490.91;5032216;28;20301;-77
2020/12/18 09:28:35;;;;;;;6.97;3.70;;;;;;;-144.99;90.28;52533.69;5031852;28;20213;-77
2020/12/18 09:31:02;;;;;;;8.87;3.70;;;;;;;-144.99;89.67;52554.09;5032476;28;20253;-77
2020/12/18 09:33:30;;;;;;;10.80;3.57;;;;;;;-144.99;89.72;52517.41;5035292;28;20198;-79
2020/12/18 09:35:59;;;;;;;7.97;3.73;;;;;;;-144.99;89.15;52507.19;5024347;28;20277;-76
2020/12/18 09:38:27;;;;;;;16.20;4.40;;;;;;;-144.99;88.33;52486.81;5037084;28;20226;-77
2020/12/18 09:40:55;;;;;;;13.00;4.67;;;;;;;-144.99;87.90;52492.94;5016726;28;20441;-77
2020/12/18 09:43:22;;;;;;;8.07;3.37;;;;;;;-144.99;87.13;52511.28;5033326;28;20202;-79
2020/12/18 09:45:49;;;;;;;9.27;3.67;;;;;;;-144.99;86.51;52497.00;5018991;28;20740;-75
2020/12/18 09:48:15;;;;;;;7.30;3.87;;;;;;;-144.99;86.96;52513.31;5020037;28;20199;-78
2020/12/18 09:50:41;;;;;;;5.23;3.77;;;;;;;-144.99;87.16;52521.47;5012383;28;20222;-77
2020/12/18 09:53:08;;;;;;;5.87;4.87;;;;;;;-144.99;87.02;52482.75;5031666;28;20210;-79
2020/12/18 09:55:34;;;;;;;9.00;3.50;;;;;;;-144.99;87.90;52525.56;5018418;28;20203;-77
2020/12/18 09:58:03;;;;;;;6.10;2.57;;;;;;;-144.99;87.40;52529.63;5016919;28;20734;-76
2020/12/18 10:00:29;;;;;;;5.00;2.53;;;;;;;-144.99;87.02;52545.94;5031716;28;20702;-78
2020/12/18 10:02:55;;;;;;;11.17;3.73;;;;;;;-144.99;85.65;52476.63;5030882;28;20209;-75
2020/12/18 10:05:22;;;;;;;8.63;3.00;;;;;;;-144.99;85.53;52492.94;5030611;28;20222;-76
2020/12/18 10:07:48;;;;;;;5.80;2.57;;;;;;;-144.99;84.38;52499.06;5021137;28;20287;-74
2020/12/18 10:10:14;;;;;;;7.03;2.77;;;;;;;-144.99;83.85;52517.41;5018229;28;20227;-78
2020/12/18 10:12:41;;;;;;;6.10;2.70;;;;;;;-144.99;81.56;52523.50;5029890;28;20256;-77
2020/12/18 10:15:08;;;;;;;4.30;2.57;;;;;;;-144.99;79.99;52480.72;5030447;28;20204;-79
2020/12/18 10:17:35;;;;;;;11.43;3.60;;;;;;;-144.99;78.25;52462.34;5029873;28;20225;-78
2020/12/18 10:20:01;;;;;;;5.77;1.97;;;;;;;-144.99;76.57;52476.63;5019407;28;20274;-80
2020/12/18 10:22:28;;;;;;;5.83;4.63;;;;;;;-144.99;74.48;52431.78;5031029;28;20214;-79
2020/12/18 10:24:54;;;;;;;8.13;3.40;;;;;;;-144.99;74.07;52439.94;5019914;28;20551;-79
2020/12/18 10:27:20;;;;;;;10.77;5.27;;;;;;;-144.99;74.69;52431.78;5020093;28;20293;-78
2020/12/18 10:29:47;;;;;;;8.70;2.73;;;;;;;-144.99;73.69;52464.41;5031222;28;20218;-80
2020/12/18 10:32:14;;;;;;;5.17;2.77;;;;;;;-144.99;72.44;52427.72;5030724;28;20256;-74
2020/12/18 10:34:40;;;;;;;7.60;2.30;;;;;;;-144.99;72.51;52484.78;5029716;28;20190;-73
2020/12/18 10:37:06;;;;;;;3.97;2.67;;;;;;;-144.99;72.77;52423.63;5030421;28;20195;-73
2020/12/18 10:39:33;;;;;;;4.53;2.53;;;;;;;-144.99;72.51;52476.63;5029639;28;20308;-74
2020/12/18 10:42:02;;;;;;;9.30;2.30;;;;;;;-144.99;72.53;52395.09;5030391;28;20236;-78
2020/12/18 10:44:28;;;;;;;5.60;2.80;;;;;;;-144.99;73.04;52362.50;5017226;28;20639;-76
2020/12/18 10:46:54;;;;;;;5.57;3.10;;;;;;;-144.99;71.94;52452.16;5030245;28;20205;-74
2020/12/18 10:49:21;;;;;;;7.33;2.40;;;;;;;-144.99;71.57;52450.13;5016261;28;20195;-74
2020/12/18 10:51:48;;;;;;;7.90;2.70;;;;;;;-144.99;70.85;52431.78;5018905;28;20226;-75
2020/12/18 10:54:14;;;;;;;5.93;2.80;;;;;;;-144.99;70.98;52476.63;5028736;28;20213;-78
2020/12/18 10:56:42;;;;;;;5.37;3.07;;;;;;;-144.99;70.99;52472.56;5019411;28;20241;-76
2020/12/18 10:59:09;;;;;;;9.27;2.50;;;;;;;-144.99;70.59;52444.03;5029785;28;20226;-76
2020/12/18 11:01:35;;;;;;;4.93;2.83;;;;;;;-144.99;71.57;52482.75;5031204;28;20230;-75
2020/12/18 11:04:02;;;;;;;7.93;3.37;;;;;;;-144.99;71.98;52488.84;5030297;28;20297;-75